Time;durP1;ratioP1;P1;durP2;ratioP2;P2;SDS_P1;SDS_P2;PMS_P1;PMS_P2;Temp;Humidity;BMP_temperature;BMP_pressure;BME280_temperature;BME280_humidity;BME280_pressure;Samples;Min_cycle;Max_cycle;Signal;HPM_P1;HPM_P2
2021/03/13 00:01:05;;;;;;;2.57;1.50;;;6.20;59.50;;;;;;5044576;28;20184;-85
2021/03/13 00:03:31;;;;;;;6.80;2.00;;;6.20;59.60;;;;;;5052124;28;20025;-85
2021/03/13 00:05:58;;;;;;;5.37;2.20;;;6.10;59.50;;;;;;5044711;28;20494;-85
2021/03/13 00:08:24;;;;;;;5.20;1.90;;;6.20;59.50;;;;;;5038363;28;20404;-85
2021/03/13 00:10:50;;;;;;;7.07;2.00;;;6.10;59.60;;;;;;5042790;28;20025;-85
2021/03/13 00:13:16;;;;;;;4.87;2.00;;;6.00;59.90;;;;;;5049703;28;20036;-85
2021/03/13 00:15:43;;;;;;;6.17;2.17;;;6.00;59.80;;;;;;5048775;28;20112;-83
2021/03/13 00:18:10;;;;;;;4.43;1.80;;;6.10;60.00;;;;;;5041848;28;20044;-83
2021/03/13 00:20:37;;;;;;;2.77;1.50;;;6.10;60.00;;;;;;5047256;28;20117;-83
2021/03/13 00:23:04;;;;;;;2.17;1.13;;;6.10;59.90;;;;;;5036756;28;20021;-83
2021/03/13 00:25:31;;;;;;;7.53;1.63;;;6.00;60.10;;;;;;5050698;28;20021;-85
2021/03/13 00:27:58;;;;;;;2.50;1.20;;;6.00;60.10;;;;;;5052427;28;20048;-83
2021/03/13 00:30:35;;;;;;;4.23;1.30;;;6.00;60.00;;;;;;5045480;28;20055;-85
2021/03/13 00:33:08;;;;;;;2.77;1.23;;;6.00;60.20;;;;;;5041379;28;20649;-85
2021/03/13 00:35:35;;;;;;;1.80;0.90;;;5.90;60.20;;;;;;5037344;28;20034;-85
2021/03/13 00:38:02;;;;;;;3.03;1.17;;;5.90;60.20;;;;;;5040297;28;20048;-85
2021/03/13 00:40:30;;;;;;;6.03;1.33;;;5.90;60.00;;;;;;5047379;28;20056;-85
2021/03/13 00:42:56;;;;;;;3.97;1.60;;;5.80;60.10;;;;;;5046770;28;20043;-85
2021/03/13 00:45:24;;;;;;;3.37;1.20;;;5.80;60.10;;;;;;5038328;28;20068;-85
2021/03/13 00:47:51;;;;;;;3.30;0.93;;;5.80;60.40;;;;;;5037583;28;20528;-84
2021/03/13 00:50:19;;;;;;;4.30;1.10;;;5.90;60.10;;;;;;5038471;28;20031;-85
2021/03/13 00:52:45;;;;;;;4.17;1.30;;;5.80;59.90;;;;;;5042034;28;20120;-85
2021/03/13 00:55:13;;;;;;;4.83;1.50;;;5.70;60.30;;;;;;5047949;28;20083;-85
2021/03/13 00:57:39;;;;;;;3.40;1.30;;;5.70;60.30;;;;;;5046507;28;20431;-84
2021/03/13 01:00:07;;;;;;;2.57;2.23;;;5.70;60.30;;;;;;5036230;28;20025;-85
2021/03/13 01:02:33;;;;;;;2.67;1.10;;;5.70;60.30;;;;;;5045049;28;20083;-85
2021/03/13 01:04:58;;;;;;;2.93;0.83;;;5.80;60.60;;;;;;5049473;28;20033;-85
2021/03/13 01:07:24;;;;;;;3.23;0.93;;;5.80;60.60;;;;;;5048730;28;20042;-85
2021/03/13 01:09:50;;;;;;;3.57;1.30;;;5.80;60.60;;;;;;5041047;28;20037;-85
2021/03/13 01:12:16;;;;;;;3.07;1.00;;;5.80;60.90;;;;;;5055447;28;20120;-85
2021/03/13 01:14:43;;;;;;;2.60;0.97;;;5.80;60.70;;;;;;5039063;28;20543;-85
2021/03/13 01:17:09;;;;;;;2.03;1.10;;;5.70;60.80;;;;;;5038348;28;20029;-85
2021/03/13 01:19:35;;;;;;;2.40;1.37;;;5.70;60.60;;;;;;5048440;28;20032;-85
2021/03/13 01:22:01;;;;;;;4.23;1.70;;;5.70;60.80;;;;;;5042190;28;20021;-84
2021/03/13 01:24:27;;;;;;;5.20;1.47;;;5.70;60.80;;;;;;5048905;28;20022;-85
2021/03/13 01:26:53;;;;;;;4.53;1.73;;;5.70;60.80;;;;;;5038791;28;20029;-85
2021/03/13 01:29:19;;;;;;;6.20;1.63;;;5.60;60.80;;;;;;5040227;28;20030;-85
2021/03/13 01:31:45;;;;;;;3.07;1.40;;;5.60;61.00;;;;;;5051593;28;20055;-85
2021/03/13 01:34:10;;;;;;;6.37;1.53;;;5.60;61.40;;;;;;5041877;28;20045;-85
2021/03/13 01:36:36;;;;;;;5.87;2.03;;;5.80;61.20;;;;;;5054925;28;20128;-85
2021/03/13 01:39:03;;;;;;;5.13;1.97;;;5.80;61.00;;;;;;5048685;28;20028;-85
2021/03/13 01:41:29;;;;;;;6.47;1.60;;;5.80;61.00;;;;;;5045010;28;20075;-85
2021/03/13 01:43:55;;;;;;;3.40;1.00;;;5.90;60.70;;;;;;5053009;28;20033;-85
2021/03/13 01:46:21;;;;;;;3.70;1.40;;;5.90;60.60;;;;;;5046626;28;20040;-85
2021/03/13 01:48:51;;;;;;;3.87;1.40;;;5.90;60.80;;;;;;5049447;28;20032;-85
2021/03/13 01:51:17;;;;;;;2.70;1.00;;;5.80;60.80;;;;;;5043912;28;20037;-85
2021/03/13 01:53:51;;;;;;;2.90;0.93;;;5.80;61.00;;;;;;5037809;28;20033;-85
2021/03/13 01:56:17;;;;;;;1.50;0.63;;;5.80;61.00;;;;;;5044397;28;20029;-85
2021/03/13 01:58:44;;;;;;;3.50;1.30;;;5.70;61.50;;;;;;5044759;28;20036;-85
2021/03/13 02:01:11;;;;;;;1.93;0.90;;;5.60;60.90;;;;;;5048530;28;20116;-85
2021/03/13 02:03:43;;;;;;;3.67;1.40;;;5.60;61.20;;;;;;5053634;28;20391;-85
2021/03/13 02:06:08;;;;;;;1.33;0.67;;;5.60;60.90;;;;;;5037425;28;20117;-85
2021/03/13 02:08:49;;;;;;;3.70;0.67;;;5.60;61.00;;;;;;5039398;28;20312;-85
2021/03/13 02:11:34;;;;;;;2.30;0.70;;;5.60;60.90;;;;;;5048411;28;20434;-85
2021/03/13 02:14:13;;;;;;;1.57;0.67;;;5.60;60.80;;;;;;5041093;28;20029;-85
2021/03/13 02:16:52;;;;;;;5.03;0.90;;;5.60;61.30;;;;;;5051754;28;20112;-85
2021/03/13 02:19:33;;;;;;;2.67;1.03;;;5.70;61.00;;;;;;5049870;28;20483;-85
2021/03/13 02:22:03;;;;;;;3.97;1.20;;;5.60;60.90;;;;;;5048100;28;20474;-85
2021/03/13 02:24:28;;;;;;;5.23;1.20;;;5.70;60.80;;;;;;5035439;28;20499;-85
2021/03/13 02:27:13;;;;;;;2.00;1.07;;;5.60;60.70;;;;;;5040753;28;20061;-85
2021/03/13 02:29:45;;;;;;;1.80;0.80;;;5.70;61.00;;;;;;5043849;28;20033;-86
2021/03/13 02:32:18;;;;;;;2.85;0.82;;;5.70;60.90;;;;;;5046870;28;20025;-85
2021/03/13 02:34:46;;;;;;;2.67;1.40;;;5.60;61.00;;;;;;5036697;28;20500;-85
2021/03/13 02:37:22;;;;;;;1.80;0.93;;;5.70;60.90;;;;;;5053432;28;20021;-85
2021/03/13 02:39:51;;;;;;;3.57;1.60;;;5.70;60.80;;;;;;5046453;28;20025;-85
2021/03/13 02:42:18;;;;;;;3.07;1.60;;;5.60;60.80;;;;;;5039012;28;20022;-85
2021/03/13 02:44:46;;;;;;;5.87;1.33;;;5.50;60.90;;;;;;5047046;28;20021;-85
2021/03/13 02:47:13;;;;;;;2.13;1.00;;;5.50;61.00;;;;;;5048845;28;20112;-85
2021/03/13 02:49:43;;;;;;;4.27;1.00;;;5.60;61.00;;;;;;5038174;28;20079;-85
2021/03/13 02:52:10;;;;;;;2.37;1.10;;;5.60;60.90;;;;;;5042320;28;20053;-85
2021/03/13 02:54:38;;;;;;;3.37;1.00;;;5.60;60.70;;;;;;5055202;28;20086;-85
2021/03/13 02:57:06;;;;;;;2.10;1.00;;;5.50;60.80;;;;;;5048836;28;20021;-85
2021/03/13 02:59:36;;;;;;;7.13;1.63;;;5.50;60.70;;;;;;5042361;28;20056;-85
2021/03/13 03:02:02;;;;;;;4.43;2.60;;;5.50;60.70;;;;;;5043160;28;20056;-85
2021/03/13 03:04:28;;;;;;;5.80;2.53;;;5.40;60.90;;;;;;5041226;28;20170;-85
2021/03/13 03:06:56;;;;;;;6.67;2.40;;;5.30;60.90;;;;;;5050196;28;20162;-85
2021/03/13 03:09:24;;;;;;;5.27;3.27;;;5.30;61.20;;;;;;5046088;28;20917;-85
2021/03/13 03:11:51;;;;;;;9.23;3.80;;;5.30;61.30;;;;;;5055266;28;20063;-85
2021/03/13 03:14:17;;;;;;;8.47;4.33;;;5.30;61.30;;;;;;5044516;28;20033;-84
2021/03/13 03:16:46;;;;;;;11.20;3.73;;;5.30;61.30;;;;;;5057011;28;20117;-85
2021/03/13 03:19:15;;;;;;;6.87;3.07;;;5.30;61.20;;;;;;5050557;28;20052;-84
2021/03/13 03:21:41;;;;;;;7.13;3.60;;;5.30;61.70;;;;;;5039777;28;20045;-85
2021/03/13 03:24:07;;;;;;;6.43;3.20;;;5.30;61.30;;;;;;5045448;28;20100;-85
2021/03/13 03:26:34;;;;;;;6.07;3.47;;;5.40;61.20;;;;;;5049931;28;20032;-85
2021/03/13 03:29:00;;;;;;;5.57;2.97;;;5.40;61.10;;;;;;5036967;28;20494;-85
2021/03/13 03:31:26;;;;;;;5.37;3.90;;;5.40;61.20;;;;;;5047512;28;20108;-85
2021/03/13 03:33:51;;;;;;;6.73;3.10;;;5.40;61.20;;;;;;5035112;28;20045;-85
2021/03/13 03:36:17;;;;;;;6.40;2.83;;;5.40;61.20;;;;;;5050504;28;20448;-85
2021/03/13 03:38:43;;;;;;;5.53;3.23;;;5.40;61.20;;;;;;5049143;28;20079;-85
2021/03/13 03:41:09;;;;;;;8.13;3.77;;;5.40;61.70;;;;;;5039074;28;20040;-85
2021/03/13 03:43:45;;;;;;;5.90;3.13;;;5.30;61.30;;;;;;5036799;28;20029;-85
2021/03/13 03:46:12;;;;;;;7.07;2.63;;;5.20;61.50;;;;;;5045378;28;20033;-85
2021/03/13 03:48:38;;;;;;;5.47;1.90;;;5.20;61.60;;;;;;5049790;28;20045;-85
2021/03/13 03:51:09;;;;;;;4.67;2.60;;;5.20;61.60;;;;;;5039853;28;20400;-85
2021/03/13 03:53:39;;;;;;;5.30;2.47;;;5.20;61.70;;;;;;5037552;28;20034;-85
2021/03/13 03:56:06;;;;;;;4.20;2.37;;;5.20;61.60;;;;;;5043965;28;20060;-85
2021/03/13 03:58:44;;;;;;;5.70;2.50;;;5.10;61.80;;;;;;5050492;28;20071;-85
2021/03/13 04:01:11;;;;;;;8.83;2.33;;;5.20;61.90;;;;;;5036374;28;20029;-85
2021/03/13 04:03:51;;;;;;;8.70;3.07;;;5.10;61.70;;;;;;5042429;28;20124;-85
2021/03/13 04:06:17;;;;;;;6.37;1.80;;;5.00;62.00;;;;;;5045509;28;20036;-84
2021/03/13 04:08:45;;;;;;;5.67;1.90;;;5.00;61.90;;;;;;5036505;28;20037;-84
2021/03/13 04:11:14;;;;;;;4.40;1.97;;;5.00;62.00;;;;;;5038051;28;20432;-85
2021/03/13 04:13:43;;;;;;;7.40;1.80;;;5.00;62.00;;;;;;5031342;28;20080;-85
2021/03/13 04:16:10;;;;;;;5.47;2.10;;;5.00;62.10;;;;;;5045950;28;20025;-85
2021/03/13 04:18:36;;;;;;;4.37;2.10;;;5.00;62.20;;;;;;5034135;28;20408;-85
2021/03/13 04:21:02;;;;;;;4.93;2.30;;;5.00;62.20;;;;;;5051308;28;20031;-85
2021/03/13 04:23:29;;;;;;;3.80;2.10;;;5.00;62.10;;;;;;5040817;28;20057;-85
2021/03/13 04:25:56;;;;;;;6.03;2.50;;;5.00;62.10;;;;;;5038552;28;20163;-85
2021/03/13 04:28:22;;;;;;;6.03;2.20;;;5.00;62.10;;;;;;5035742;28;20506;-85
2021/03/13 04:30:52;;;;;;;5.87;2.40;;;4.90;62.30;;;;;;5043730;28;20033;-85
2021/03/13 04:33:18;;;;;;;5.00;2.50;;;4.80;62.40;;;;;;5037550;28;20033;-85
2021/03/13 04:35:46;;;;;;;6.67;2.10;;;4.80;62.60;;;;;;5041349;28;20059;-85
2021/03/13 04:38:16;;;;;;;4.10;1.77;;;4.80;62.60;;;;;;5038080;28;20021;-85
2021/03/13 04:40:44;;;;;;;4.70;2.07;;;4.80;62.70;;;;;;5046967;28;20030;-85
2021/03/13 04:43:10;;;;;;;4.47;1.83;;;4.80;62.80;;;;;;5034514;28;20052;-85
2021/03/13 04:45:37;;;;;;;4.87;1.83;;;4.80;62.60;;;;;;5039701;28;20029;-85
2021/03/13 04:48:03;;;;;;;4.83;1.70;;;4.80;62.50;;;;;;5041960;28;20029;-85
2021/03/13 04:50:29;;;;;;;3.40;1.90;;;4.80;62.60;;;;;;5038724;28;20029;-85
2021/03/13 04:52:54;;;;;;;6.07;1.90;;;4.80;62.60;;;;;;5035558;28;20041;-85
2021/03/13 04:55:20;;;;;;;5.93;1.80;;;4.80;62.50;;;;;;5039163;28;20037;-85
2021/03/13 04:57:46;;;;;;;5.77;2.30;;;4.80;62.70;;;;;;5044759;28;20111;-85
2021/03/13 05:00:14;;;;;;;6.80;1.90;;;4.90;62.70;;;;;;5049335;28;20056;-85
2021/03/13 05:02:40;;;;;;;12.80;3.07;;;4.90;62.40;;;;;;5051208;28;20075;-85
2021/03/13 05:05:08;;;;;;;6.63;1.87;;;4.80;63.00;;;;;;5046396;28;20385;-85
2021/03/13 05:07:34;;;;;;;2.97;1.80;;;4.80;62.40;;;;;;5042161;28;20037;-85
2021/03/13 05:10:00;;;;;;;4.30;2.20;;;4.80;62.30;;;;;;5053721;28;20557;-85
2021/03/13 05:12:26;;;;;;;5.47;2.10;;;4.80;62.60;;;;;;5038710;28;20029;-85
2021/03/13 05:14:52;;;;;;;5.27;2.47;;;4.90;62.40;;;;;;5046714;28;20506;-85
2021/03/13 05:17:19;;;;;;;6.40;2.27;;;4.90;62.30;;;;;;5049896;28;20044;-85
2021/03/13 05:19:45;;;;;;;5.33;2.50;;;4.90;62.30;;;;;;5038313;28;20480;-85
2021/03/13 05:22:10;;;;;;;5.90;2.10;;;4.80;62.30;;;;;;5045945;28;20120;-85
2021/03/13 05:24:37;;;;;;;8.60;2.43;;;4.90;62.30;;;;;;5038315;28;20029;-84
2021/03/13 05:27:03;;;;;;;7.60;2.90;;;4.90;62.10;;;;;;5042368;28;20021;-85
2021/03/13 05:29:29;;;;;;;7.07;3.00;;;4.80;62.20;;;;;;5041931;28;20029;-85
2021/03/13 05:31:54;;;;;;;8.80;4.20;;;4.80;62.30;;;;;;5050063;28;20097;-85
2021/03/13 05:34:20;;;;;;;10.07;3.93;;;4.80;62.30;;;;;;5033203;28;20164;-85
2021/03/13 05:36:46;;;;;;;7.73;4.17;;;4.80;62.30;;;;;;5034272;28;20487;-85
2021/03/13 05:39:11;;;;;;;9.17;3.90;;;4.80;62.30;;;;;;5038869;28;20025;-85
2021/03/13 05:41:38;;;;;;;12.23;3.93;;;4.80;62.40;;;;;;5036284;28;20456;-85
2021/03/13 05:44:07;;;;;;;10.77;4.07;;;4.80;62.40;;;;;;5041973;28;20032;-85
2021/03/13 05:46:35;;;;;;;10.53;4.13;;;4.80;62.30;;;;;;5045447;28;20030;-85
2021/03/13 05:49:07;;;;;;;7.97;3.50;;;4.80;62.20;;;;;;5054074;28;20071;-85
2021/03/13 05:51:44;;;;;;;4.80;2.90;;;4.80;62.50;;;;;;5048272;28;20031;-85
2021/03/13 05:54:12;;;;;;;8.53;3.97;;;4.80;62.50;;;;;;5046141;28;20107;-85
2021/03/13 05:56:39;;;;;;;8.30;4.53;;;4.70;62.50;;;;;;5043056;28;20468;-85
2021/03/13 05:59:05;;;;;;;10.40;3.53;;;4.70;62.80;;;;;;5041954;28;20029;-85
2021/03/13 06:01:32;;;;;;;12.97;3.63;;;4.70;62.70;;;;;;5038707;28;20556;-85
2021/03/13 06:03:58;;;;;;;11.60;4.03;;;4.70;62.60;;;;;;5040658;28;20159;-85
2021/03/13 06:06:25;;;;;;;8.43;4.87;;;4.70;62.50;;;;;;5053592;28;20083;-85
2021/03/13 06:08:53;;;;;;;7.03;4.00;;;4.70;62.50;;;;;;5044298;28;20039;-85
2021/03/13 06:11:21;;;;;;;13.17;4.30;;;4.60;62.50;;;;;;5057840;28;20025;-85
2021/03/13 06:13:47;;;;;;;10.87;5.00;;;4.70;63.10;;;;;;5039376;28;20430;-85
2021/03/13 06:16:13;;;;;;;10.40;5.20;;;4.80;62.90;;;;;;5054636;28;20021;-85
2021/03/13 06:18:47;;;;;;;9.17;5.13;;;4.70;62.70;;;;;;5043453;28;20036;-85
2021/03/13 06:21:26;;;;;;;9.60;6.70;;;4.80;63.00;;;;;;5041529;28;20076;-85
2021/03/13 06:24:13;;;;;;;10.87;6.07;;;4.80;63.00;;;;;;5044679;28;20026;-85
2021/03/13 06:26:59;;;;;;;10.47;5.90;;;4.80;62.90;;;;;;5059166;28;20384;-85
2021/03/13 06:29:25;;;;;;;18.50;7.10;;;4.80;62.90;;;;;;5043598;28;20447;-85
2021/03/13 06:32:08;;;;;;;12.50;7.33;;;4.80;62.70;;;;;;5045551;28;20365;-85
2021/03/13 06:34:34;;;;;;;;;;;4.80;63.20;;;;;;5039231;28;20447;-85
2021/03/13 06:37:29;;;;;;;10.37;6.70;;;4.80;63.10;;;;;;5039101;28;19972;-85
2021/03/13 06:39:56;;;;;;;15.40;6.00;;;4.80;62.90;;;;;;5055911;28;20383;-85
2021/03/13 06:42:28;;;;;;;12.57;6.23;;;4.90;63.00;;;;;;5056352;28;20124;-85
2021/03/13 06:45:05;;;;;;;12.80;5.03;;;4.90;63.20;;;;;;5038146;28;20033;-85
2021/03/13 06:47:37;;;;;;;8.00;5.70;;;4.90;63.10;;;;;;5038163;28;20033;-85
2021/03/13 06:50:19;;;;;;;17.83;8.03;;;5.00;62.90;;;;;;5054028;28;20391;-85
2021/03/13 06:52:47;;;;;;;13.13;8.63;;;5.10;62.90;;;;;;5036900;28;20029;-85
2021/03/13 06:55:18;;;;;;;13.90;8.43;;;5.10;62.90;;;;;;5047260;28;20032;-85
2021/03/13 06:57:47;;;;;;;18.97;8.50;;;5.10;63.00;;;;;;5048777;28;20214;-85
2021/03/13 07:00:34;;;;;;;15.13;8.13;;;5.10;62.90;;;;;;5039671;28;20044;-85
2021/03/13 07:03:14;;;;;;;26.47;10.80;;;5.30;63.20;;;;;;5043456;28;20039;-85
2021/03/13 07:05:42;;;;;;;22.40;9.23;;;5.40;63.00;;;;;;5055214;28;20047;-85
2021/03/13 07:08:28;;;;;;;18.77;9.57;;;5.40;62.80;;;;;;5043087;28;20396;-85
2021/03/13 07:11:15;;;;;;;18.80;7.23;;;5.50;62.80;;;;;;5049752;28;20029;-85
2021/03/13 07:14:00;;;;;;;12.00;6.30;;;5.60;62.60;;;;;;5039291;28;20031;-85
2021/03/13 07:16:37;;;;;;;11.30;5.90;;;5.60;62.60;;;;;;5043234;28;20040;-85
2021/03/13 07:19:11;;;;;;;15.97;6.40;;;5.60;62.50;;;;;;5037040;28;20392;-85
2021/03/13 07:21:40;;;;;;;13.57;5.93;;;5.60;62.40;;;;;;5039313;28;20024;-85
2021/03/13 07:24:08;;;;;;;9.37;5.73;;;5.60;62.50;;;;;;5044680;28;20032;-85
2021/03/13 07:26:45;;;;;;;11.83;6.20;;;5.60;62.30;;;;;;5036260;28;20064;-85
2021/03/13 07:29:14;;;;;;;9.57;5.37;;;5.60;62.50;;;;;;5046841;28;20036;-85
2021/03/13 07:31:51;;;;;;;12.07;5.77;;;5.60;62.50;;;;;;5038256;28;20053;-85
2021/03/13 07:34:23;;;;;;;11.10;5.33;;;5.70;62.50;;;;;;5034816;28;20447;-85
2021/03/13 07:36:57;;;;;;;8.65;4.88;;;5.70;62.50;;;;;;5037667;28;20032;-85
2021/03/13 07:39:28;;;;;;;11.30;4.63;;;5.80;62.40;;;;;;5042546;28;20056;-85
2021/03/13 07:42:12;;;;;;;10.87;5.50;;;5.80;62.30;;;;;;5040021;28;20028;-85
2021/03/13 07:44:38;;;;;;;8.97;4.63;;;5.80;62.20;;;;;;5039237;28;20026;-85
2021/03/13 07:47:06;;;;;;;11.00;4.90;;;5.90;62.20;;;;;;5045942;28;20029;-85
2021/03/13 07:49:33;;;;;;;14.97;7.23;;;5.90;62.10;;;;;;5043883;28;20025;-85
2021/03/13 07:52:00;;;;;;;9.97;5.40;;;5.90;62.00;;;;;;5049040;28;20029;-85
2021/03/13 07:54:29;;;;;;;9.73;5.20;;;6.00;61.90;;;;;;5041240;28;20037;-85
2021/03/13 07:56:58;;;;;;;13.50;5.70;;;6.00;61.80;;;;;;5045043;28;20391;-84
2021/03/13 07:59:46;;;;;;;12.10;5.57;;;6.10;61.90;;;;;;5040237;28;20037;-85
2021/03/13 08:02:30;;;;;;;15.03;5.53;;;6.10;61.60;;;;;;5045090;28;20593;-85
2021/03/13 08:05:07;;;;;;;10.83;5.70;;;6.20;61.60;;;;;;5041308;28;20385;-85
2021/03/13 08:08:06;;;;;;;11.83;5.23;;;6.30;61.40;;;;;;5045966;28;20111;-83
2021/03/13 08:10:47;;;;;;;9.10;4.60;;;6.40;61.30;;;;;;5052513;28;20068;-85
2021/03/13 08:13:28;;;;;;;9.07;4.93;;;6.50;61.20;;;;;;5039813;28;20071;-85
2021/03/13 08:16:04;;;;;;;11.40;5.20;;;6.60;61.00;;;;;;5042885;28;20029;-85
2021/03/13 08:18:50;;;;;;;12.47;4.87;;;6.80;60.60;;;;;;5050871;28;20028;-85
2021/03/13 08:21:35;;;;;;;12.40;5.20;;;7.20;60.20;;;;;;5047349;28;20029;-85
2021/03/13 08:24:02;;;;;;;14.10;5.60;;;7.60;59.40;;;;;;5052880;28;20025;-85
2021/03/13 08:26:34;;;;;;;13.73;5.90;;;7.70;59.00;;;;;;5043200;28;20025;-85
2021/03/13 08:29:03;;;;;;;14.67;5.93;;;7.80;58.90;;;;;;5036569;28;20056;-85
2021/03/13 08:31:35;;;;;;;19.80;9.37;;;7.90;58.60;;;;;;5032272;28;20060;-85
2021/03/13 08:34:09;;;;;;;9.75;5.32;;;8.00;58.50;;;;;;5042351;28;20045;-85
2021/03/13 08:36:47;;;;;;;8.43;4.93;;;8.10;58.60;;;;;;5044068;28;20032;-85
2021/03/13 08:39:18;;;;;;;17.67;5.53;;;8.30;58.60;;;;;;5039149;28;20056;-85
2021/03/13 08:41:44;;;;;;;10.70;4.50;;;8.50;58.10;;;;;;5052927;28;20201;-85
2021/03/13 08:44:19;;;;;;;10.13;3.50;;;8.60;57.80;;;;;;5048345;28;20030;-85
2021/03/13 08:46:58;;;;;;;7.17;3.40;;;8.70;57.60;;;;;;5036758;28;20034;-85
2021/03/13 08:49:27;;;;;;;10.53;3.90;;;8.70;56.80;;;;;;5038219;28;20029;-85
2021/03/13 08:52:05;;;;;;;7.67;4.33;;;8.80;57.10;;;;;;5050552;28;20032;-85
2021/03/13 08:54:37;;;;;;;11.47;6.43;;;8.80;56.90;;;;;;5041923;28;20108;-85
2021/03/13 08:57:32;;;;;;;10.67;5.63;;;9.00;56.50;;;;;;5044923;28;20029;-85
2021/03/13 09:00:00;;;;;;;9.57;4.80;;;9.10;56.00;;;;;;5029975;28;20030;-85
2021/03/13 09:02:37;;;;;;;10.13;3.60;;;9.20;55.40;;;;;;5035406;28;20488;-85
2021/03/13 09:05:12;;;;;;;6.27;3.20;;;9.20;55.10;;;;;;5051008;28;20037;-84
2021/03/13 09:07:49;;;;;;;6.47;3.30;;;9.30;54.90;;;;;;5045932;28;20037;-84
2021/03/13 09:10:16;;;;;;;7.87;3.53;;;9.30;54.70;;;;;;5049101;28;20037;-84
2021/03/13 09:12:44;;;;;;;9.67;3.80;;;9.30;54.50;;;;;;5047276;28;20029;-84
2021/03/13 09:15:11;;;;;;;8.17;4.30;;;9.40;54.60;;;;;;5034205;28;20029;-84
2021/03/13 09:17:37;;;;;;;8.43;3.53;;;9.40;54.50;;;;;;5035878;28;20029;-84
2021/03/13 09:20:07;;;;;;;15.60;5.50;;;9.50;54.30;;;;;;5039507;28;20021;-84
2021/03/13 09:22:36;;;;;;;6.10;2.77;;;9.60;53.90;;;;;;5034283;28;20121;-84
2021/03/13 09:25:06;;;;;;;9.20;3.23;;;9.80;53.40;;;;;;5035368;28;20056;-84
2021/03/13 09:27:37;;;;;;;8.20;4.00;;;9.90;52.60;;;;;;5042947;28;20039;-84
2021/03/13 09:30:06;;;;;;;7.83;2.97;;;10.00;52.30;;;;;;5052385;28;20587;-84
2021/03/13 09:32:32;;;;;;;8.30;3.47;;;10.20;51.90;;;;;;5047735;28;20033;-84
2021/03/13 09:34:58;;;;;;;7.87;3.07;;;10.30;51.70;;;;;;5052106;28;20056;-84
2021/03/13 09:37:30;;;;;;;9.97;2.93;;;10.40;51.20;;;;;;5042554;28;20083;-84
2021/03/13 09:40:00;;;;;;;8.77;3.30;;;10.50;51.20;;;;;;5048206;28;20541;-84
2021/03/13 09:42:27;;;;;;;6.90;3.50;;;10.60;51.10;;;;;;5049310;28;20123;-84
2021/03/13 09:44:57;;;;;;;6.53;2.67;;;10.90;50.80;;;;;;5045564;28;20067;-84
2021/03/13 09:47:54;;;;;;;6.80;2.77;;;11.00;50.30;;;;;;5056346;28;20093;-84
2021/03/13 09:50:26;;;;;;;5.13;2.60;;;11.20;50.00;;;;;;5049184;28;20025;-84
2021/03/13 09:52:52;;;;;;;6.77;2.77;;;11.40;49.90;;;;;;5045290;28;20028;-84
2021/03/13 09:55:23;;;;;;;8.67;2.87;;;11.50;49.40;;;;;;5040474;28;20026;-84
2021/03/13 09:57:54;;;;;;;9.93;3.40;;;11.70;49.00;;;;;;5045823;28;20017;-84
2021/03/13 10:00:40;;;;;;;9.87;3.67;;;11.80;48.60;;;;;;5043629;28;20049;-84
2021/03/13 10:03:11;;;;;;;6.63;2.30;;;11.90;48.10;;;;;;5047196;28;20017;-84
2021/03/13 10:05:37;;;;;;;6.90;1.83;;;12.00;47.90;;;;;;5054355;28;20033;-84
2021/03/13 10:08:07;;;;;;;8.33;2.80;;;12.00;47.60;;;;;;5048801;28;20036;-83
2021/03/13 10:10:33;;;;;;;10.87;2.17;;;12.20;47.50;;;;;;5050722;28;20025;-84
2021/03/13 10:13:02;;;;;;;5.60;2.23;;;12.20;47.10;;;;;;5040230;28;20033;-84
2021/03/13 10:15:32;;;;;;;33.17;13.60;;;12.20;47.00;;;;;;5037141;28;20033;-83
2021/03/13 10:18:05;;;;;;;61.67;31.43;;;12.20;46.90;;;;;;5033818;28;20049;-83
2021/03/13 10:20:31;;;;;;;11.83;5.33;;;12.40;46.80;;;;;;5050314;28;20472;-84
2021/03/13 10:23:06;;;;;;;9.07;3.50;;;12.40;46.50;;;;;;5043028;28;20024;-84
2021/03/13 10:25:34;;;;;;;7.40;4.00;;;12.50;46.40;;;;;;5041820;28;20029;-84
2021/03/13 10:28:14;;;;;;;8.93;4.00;;;12.60;46.30;;;;;;5062965;28;20056;-84
2021/03/13 10:30:44;;;;;;;9.03;5.73;;;12.70;46.10;;;;;;5041175;28;20026;-84
2021/03/13 10:33:12;;;;;;;9.43;4.13;;;12.80;46.00;;;;;;5038974;28;20076;-84
2021/03/13 10:35:38;;;;;;;17.77;6.67;;;12.80;45.50;;;;;;5048272;28;20029;-84
2021/03/13 10:38:17;;;;;;;9.27;5.80;;;12.70;46.20;;;;;;5056646;28;20547;-84
2021/03/13 10:40:49;;;;;;;5.30;3.30;;;12.90;45.00;;;;;;5037313;28;20026;-84
2021/03/13 10:43:25;;;;;;;6.13;3.70;;;13.00;44.70;;;;;;5051449;28;20027;-84
2021/03/13 10:45:57;;;;;;;7.73;4.23;;;13.00;44.50;;;;;;5039810;28;20029;-84
2021/03/13 10:48:30;;;;;;;11.87;6.50;;;13.00;44.60;;;;;;5036584;28;20091;-84
2021/03/13 10:50:57;;;;;;;19.60;8.80;;;13.10;44.50;;;;;;5035700;28;20052;-84
2021/03/13 10:53:40;;;;;;;19.27;9.93;;;13.30;44.30;;;;;;5049434;28;20035;-84
2021/03/13 10:56:11;;;;;;;20.15;11.63;;;13.40;43.90;;;;;;5046373;28;20025;-84
2021/03/13 10:58:58;;;;;;;23.87;11.80;;;13.40;43.70;;;;;;5048125;28;20029;-83
2021/03/13 11:01:25;;;;;;;17.40;7.90;;;13.40;43.80;;;;;;5043459;28;20041;-83
2021/03/13 11:03:53;;;;;;;9.27;4.27;;;13.60;43.60;;;;;;5044900;28;20031;-83
2021/03/13 11:06:33;;;;;;;22.10;8.40;;;13.70;42.90;;;;;;5048376;28;20040;-83
2021/03/13 11:09:02;;;;;;;21.17;9.70;;;13.80;42.90;;;;;;5055332;28;20071;-83
2021/03/13 11:11:28;;;;;;;18.47;8.80;;;14.10;42.80;;;;;;5053297;28;20451;-83
2021/03/13 11:13:55;;;;;;;19.20;10.40;;;14.30;42.70;;;;;;5052952;28;20116;-83
2021/03/13 11:16:23;;;;;;;15.30;7.40;;;14.40;42.20;;;;;;5037232;28;20076;-83
2021/03/13 11:18:51;;;;;;;20.43;8.57;;;14.40;41.60;;;;;;5036590;28;20025;-84
2021/03/13 11:21:18;;;;;;;15.90;8.13;;;14.40;41.50;;;;;;5045338;28;20406;-83
2021/03/13 11:23:44;;;;;;;15.23;7.03;;;14.50;41.30;;;;;;5053063;28;20096;-83
2021/03/13 11:26:11;;;;;;;15.90;6.47;;;14.40;41.10;;;;;;5036907;28;20097;-83
2021/03/13 11:28:38;;;;;;;13.83;7.57;;;14.40;41.40;;;;;;5055058;28;20044;-84
2021/03/13 11:31:05;;;;;;;10.67;4.17;;;14.40;40.90;;;;;;5042804;28;20033;-85
2021/03/13 11:33:31;;;;;;;12.93;5.57;;;14.60;40.90;;;;;;5050131;28;20048;-84
2021/03/13 11:35:57;;;;;;;16.87;8.40;;;14.70;41.00;;;;;;5048360;28;20468;-84
2021/03/13 11:38:22;;;;;;;16.50;6.27;;;14.90;40.90;;;;;;5052070;28;20017;-84
2021/03/13 11:40:48;;;;;;;9.00;3.43;;;15.10;40.70;;;;;;5035961;28;20383;-84
2021/03/13 11:43:14;;;;;;;9.83;4.43;;;15.20;40.60;;;;;;5041188;28;20025;-84
2021/03/13 11:45:39;;;;;;;10.30;3.93;;;15.30;40.60;;;;;;5036000;28;20476;-84
2021/03/13 11:48:06;;;;;;;9.27;3.23;;;15.30;40.10;;;;;;5046042;28;20109;-84
2021/03/13 11:50:31;;;;;;;9.40;5.33;;;15.30;40.10;;;;;;5039569;28;20057;-84
2021/03/13 11:52:57;;;;;;;19.13;10.90;;;15.40;40.20;;;;;;5041964;28;20075;-82
2021/03/13 11:55:25;;;;;;;9.82;5.90;;;15.50;40.00;;;;;;5041857;28;20058;-82
2021/03/13 11:57:51;;;;;;;7.07;4.68;;;15.50;39.80;;;;;;5044816;28;20379;-82
2021/03/13 12:00:18;;;;;;;6.15;3.88;;;15.60;40.00;;;;;;5047294;28;20136;-82
2021/03/13 12:02:44;;;;;;;10.48;4.60;;;15.90;40.00;;;;;;5054723;28;20124;-82
2021/03/13 12:05:11;;;;;;;8.75;2.95;;;16.00;39.70;;;;;;5044612;28;20035;-85
2021/03/13 12:07:39;;;;;;;6.53;2.20;;;16.20;39.50;;;;;;5044052;28;20029;-83
2021/03/13 12:10:06;;;;;;;4.40;2.67;;;16.20;39.20;;;;;;5049033;28;20037;-83
2021/03/13 12:12:32;;;;;;;3.45;2.15;;;16.30;38.60;;;;;;5043484;28;20333;-83
2021/03/13 12:14:58;;;;;;;7.03;2.30;;;16.30;38.40;;;;;;5039287;28;20040;-83
2021/03/13 12:17:24;;;;;;;4.28;2.30;;;16.30;38.40;;;;;;5044244;28;20029;-83
2021/03/13 12:19:50;;;;;;;8.07;2.90;;;16.50;37.50;;;;;;5041873;28;20045;-83
2021/03/13 12:22:17;;;;;;;6.43;2.72;;;16.60;37.50;;;;;;5041908;28;20022;-83
2021/03/13 12:24:42;;;;;;;8.70;2.03;;;16.70;37.60;;;;;;5044526;28;20108;-83
2021/03/13 12:27:09;;;;;;;3.28;1.98;;;16.80;36.40;;;;;;5040893;28;20447;-83
2021/03/13 12:29:35;;;;;;;3.30;1.83;;;16.80;35.90;;;;;;5041208;28;20116;-82
2021/03/13 12:32:02;;;;;;;3.55;1.73;;;16.90;35.60;;;;;;5040592;28;20052;-83
2021/03/13 12:34:27;;;;;;;3.30;1.45;;;17.00;34.70;;;;;;5045611;28;20131;-83
2021/03/13 12:36:53;;;;;;;5.80;1.40;;;17.00;32.20;;;;;;5049488;28;20087;-83
2021/03/13 12:39:19;;;;;;;1.98;1.13;;;17.00;30.80;;;;;;5041860;28;20491;-83
2021/03/13 12:41:46;;;;;;;3.28;1.10;;;16.90;30.10;;;;;;5040601;28;20029;-83
2021/03/13 12:44:12;;;;;;;2.60;1.10;;;17.00;29.60;;;;;;5043871;28;20418;-84
2021/03/13 12:46:38;;;;;;;3.17;1.40;;;17.10;29.40;;;;;;5041353;28;20392;-82
2021/03/13 12:49:04;;;;;;;4.65;1.02;;;17.20;29.30;;;;;;5056362;28;20036;-82
2021/03/13 12:51:29;;;;;;;2.45;1.05;;;17.30;28.80;;;;;;5055516;28;20542;-83
2021/03/13 12:53:55;;;;;;;4.60;1.20;;;17.30;27.60;;;;;;5044871;28;20029;-83
2021/03/13 12:56:21;;;;;;;1.92;1.20;;;17.20;27.10;;;;;;5045206;28;20120;-83
2021/03/13 12:58:49;;;;;;;2.92;1.48;;;17.20;27.00;;;;;;5050578;28;20026;-83
2021/03/13 13:01:15;;;;;;;4.88;1.73;;;17.30;26.70;;;;;;5041989;28;20029;-83
2021/03/13 13:03:41;;;;;;;1.55;1.20;;;17.30;26.60;;;;;;5041018;28;20106;-83